Thurgau — HBLF — position and weather

sailwx.info

Track history (hours):
 
Tides and Currents Weather Stations Pressure Air Temp Water Temp Dewpoint Dewpoint Depression Visibility Wind Speed Wind Dir Waves Ship Positions

Thurgau

Last reported at 2015-Jun-17 16:33 UTC. Time now 2015-Jul-06 02:54 UTC.
Position N 35°52' E 015°27'.
Warning: this ship's position is 18 days out of date.

Length 180 m; draft 9.1 m.

Type: Cargo ship. MMSI: 269217000.

Date/timePositionNaut miles runAvg speedWind from/ knotsBaromVisibWave heightAir tempDewpointWater temp
2015-Jun-17 16:33N 35°52' E 015°27'1212.4
2015-Jun-17 15:33N 35°56' E 015°13'1312.7
2015-Jun-17 14:33N 36°01' E 014°58'1312.6
2015-Jun-17 13:33N 36°06' E 014°44'1312.7
2015-Jun-17 12:33N 36°10' E 014°29'1312.8
2015-Jun-17 11:33N 36°15' E 014°15'1312.9
2015-Jun-17 10:33N 36°20' E 013°60'1212.5
2015-Jun-17 09:33N 36°25' E 013°45'1412.3
2015-Jun-17 08:26N 36°30' E 013°30'48911.9
2015-Jun-15 15:08N 37°10' E 003°20'712.0
2015-Jun-15 14:33N 37°09' E 003°11'1212.6
2015-Jun-15 13:33N 37°07' E 002°56'1313.0
2015-Jun-15 12:33N 37°05' E 002°40'21912.1
2015-Jun-14 18:27N 36°25' W 001°48'2512.0
2015-Jun-14 16:24N 36°21' W 002°18'14112.9
2015-Jun-14 05:26N 36°01' W 005°12'1415.3
2015-Jun-14 04:32N 35°57' W 005°28'25610.7
2015-Jun-13 04:33N 38°15' W 009°59'1312.5
2015-Jun-13 03:33N 38°27' W 010°02'1212.3
2015-Jun-13 02:33N 38°39' W 010°06'1212.2
2015-Jun-13 01:33N 38°51' W 010°06'1212.4
2015-Jun-13 00:33N 39°04' W 010°06'1212.2
2015-Jun-12 23:33N 39°16' W 010°06'  
2015-Jun-09 21:28N 50°35' E 000°26'1213.1
2015-Jun-09 20:33N 50°41' E 000°42'1312.9
2015-Jun-09 19:34N 50°48' E 000°59'1711.8
2015-Jun-09 18:09N 50°59' E 001°19'610.9
2015-Jun-09 17:34N 51°04' E 001°26'1111.4
2015-Jun-09 16:34N 51°11' E 001°40'1211.9
2015-Jun-09 15:33N 51°20' E 001°52'1313.2
2015-Jun-09 14:33N 51°31' E 002°04'1413.7
2015-Jun-09 13:32N 51°42' E 002°19'16912.1
2015-Jun-08 23:33N 54°01' E 004°57'1211.9
2015-Jun-08 22:32N 54°13' E 005°03'28110.8
2015-Jun-07 20:23N 57°48' E 010°26'7 8.2
2015-Jun-07 19:33N 57°49' E 010°39'9 8.3
2015-Jun-07 18:32N 57°45' E 010°53'9 9.0
2015-Jun-07 17:33N 57°39' E 010°42'  
Track history (hours):
 
Tides and Currents Weather Stations Pressure Air Temp Water Temp Dewpoint Dewpoint Depression Visibility Wind Speed Wind Dir Waves Ship Positions

Thurgau

Last reported at 2015-Jun-17 16:33 UTC. Time now 2015-Jul-06 02:54 UTC.
Position N 35°52' E 015°27'.
Warning: this ship's position is 18 days out of date.

Length 180 m; draft 9.1 m.

Type: Cargo ship. MMSI: 269217000.

Date/timePositionNaut miles runAvg speedWind from/ knotsBaromVisibWave heightAir tempDewpointWater temp
2015-Jun-17 16:33N 35°52' E 015°27'1212.4
2015-Jun-17 15:33N 35°56' E 015°13'1312.7
2015-Jun-17 14:33N 36°01' E 014°58'1312.6
2015-Jun-17 13:33N 36°06' E 014°44'1312.7
2015-Jun-17 12:33N 36°10' E 014°29'1312.8
2015-Jun-17 11:33N 36°15' E 014°15'1312.9
2015-Jun-17 10:33N 36°20' E 013°60'1212.5
2015-Jun-17 09:33N 36°25' E 013°45'1412.3
2015-Jun-17 08:26N 36°30' E 013°30'48911.9
2015-Jun-15 15:08N 37°10' E 003°20'712.0
2015-Jun-15 14:33N 37°09' E 003°11'1212.6
2015-Jun-15 13:33N 37°07' E 002°56'1313.0
2015-Jun-15 12:33N 37°05' E 002°40'21912.1
2015-Jun-14 18:27N 36°25' W 001°48'2512.0
2015-Jun-14 16:24N 36°21' W 002°18'14112.9
2015-Jun-14 05:26N 36°01' W 005°12'1415.3
2015-Jun-14 04:32N 35°57' W 005°28'25610.7
2015-Jun-13 04:33N 38°15' W 009°59'1312.5
2015-Jun-13 03:33N 38°27' W 010°02'1212.3
2015-Jun-13 02:33N 38°39' W 010°06'1212.2
2015-Jun-13 01:33N 38°51' W 010°06'1212.4
2015-Jun-13 00:33N 39°04' W 010°06'1212.2
2015-Jun-12 23:33N 39°16' W 010°06'  
2015-Jun-09 21:28N 50°35' E 000°26'1213.1
2015-Jun-09 20:33N 50°41' E 000°42'1312.9
2015-Jun-09 19:34N 50°48' E 000°59'1711.8
2015-Jun-09 18:09N 50°59' E 001°19'610.9
2015-Jun-09 17:34N 51°04' E 001°26'1111.4
2015-Jun-09 16:34N 51°11' E 001°40'1211.9
2015-Jun-09 15:33N 51°20' E 001°52'1313.2
2015-Jun-09 14:33N 51°31' E 002°04'1413.7
2015-Jun-09 13:32N 51°42' E 002°19'16912.1
2015-Jun-08 23:33N 54°01' E 004°57'1211.9
2015-Jun-08 22:32N 54°13' E 005°03'28110.8
2015-Jun-07 20:23N 57°48' E 010°26'7 8.2
2015-Jun-07 19:33N 57°49' E 010°39'9 8.3
2015-Jun-07 18:32N 57°45' E 010°53'9 9.0
2015-Jun-07 17:33N 57°39' E 010°42'  

Dump ship's entire track history